sensor_id;sensor_type;location;lat;lon;timestamp;P1;durP1;ratioP1;P2;durP2;ratioP2
65998;SDS011;52766;56.008;37.440;2023-06-24T00:00:03;8.70;;;5.22;;
65998;SDS011;52766;56.008;37.440;2023-06-24T00:05:01;6.30;;;4.30;;
65998;SDS011;52766;56.008;37.440;2023-06-24T00:07:30;8.55;;;4.57;;
65998;SDS011;52766;56.008;37.440;2023-06-24T00:09:56;7.18;;;3.72;;
65998;SDS011;52766;56.008;37.440;2023-06-24T00:12:22;7.10;;;4.32;;
65998;SDS011;52766;56.008;37.440;2023-06-24T00:14:53;6.45;;;4.07;;
65998;SDS011;52766;56.008;37.440;2023-06-24T00:17:23;5.03;;;3.05;;
65998;SDS011;52766;56.008;37.440;2023-06-24T00:20:17;6.57;;;3.38;;
65998;SDS011;52766;56.008;37.440;2023-06-24T00:22:52;5.63;;;3.60;;
65998;SDS011;52766;56.008;37.440;2023-06-24T00:25:21;4.55;;;2.75;;
65998;SDS011;52766;56.008;37.440;2023-06-24T00:27:51;4.53;;;2.65;;
65998;SDS011;52766;56.008;37.440;2023-06-24T00:30:20;4.05;;;2.40;;
65998;SDS011;52766;56.008;37.440;2023-06-24T00:32:46;4.47;;;2.63;;
65998;SDS011;52766;56.008;37.440;2023-06-24T00:35:12;3.33;;;2.17;;
65998;SDS011;52766;56.008;37.440;2023-06-24T00:37:41;3.17;;;2.08;;
65998;SDS011;52766;56.008;37.440;2023-06-24T00:40:08;4.72;;;2.80;;
65998;SDS011;52766;56.008;37.440;2023-06-24T00:42:39;3.63;;;1.98;;
65998;SDS011;52766;56.008;37.440;2023-06-24T00:45:08;3.33;;;1.92;;
65998;SDS011;52766;56.008;37.440;2023-06-24T00:47:35;4.22;;;1.80;;
65998;SDS011;52766;56.008;37.440;2023-06-24T00:50:01;3.97;;;2.40;;
65998;SDS011;52766;56.008;37.440;2023-06-24T00:52:29;4.03;;;2.08;;
65998;SDS011;52766;56.008;37.440;2023-06-24T00:54:55;3.42;;;2.10;;
65998;SDS011;52766;56.008;37.440;2023-06-24T00:57:21;2.63;;;1.65;;
65998;SDS011;52766;56.008;37.440;2023-06-24T00:59:51;2.28;;;1.48;;
65998;SDS011;52766;56.008;37.440;2023-06-24T01:02:20;2.97;;;1.80;;
65998;SDS011;52766;56.008;37.440;2023-06-24T01:05:06;1.58;;;1.23;;
65998;SDS011;52766;56.008;37.440;2023-06-24T01:07:34;3.65;;;1.90;;
65998;SDS011;52766;56.008;37.440;2023-06-24T01:10:04;2.67;;;1.80;;
65998;SDS011;52766;56.008;37.440;2023-06-24T01:12:37;3.60;;;1.95;;
65998;SDS011;52766;56.008;37.440;2023-06-24T01:15:11;1.65;;;1.05;;
65998;SDS011;52766;56.008;37.440;2023-06-24T01:18:24;1.85;;;1.27;;
65998;SDS011;52766;56.008;37.440;2023-06-24T01:32:52;1.58;;;1.25;;
65998;SDS011;52766;56.008;37.440;2023-06-24T01:35:21;2.13;;;1.23;;
65998;SDS011;52766;56.008;37.440;2023-06-24T01:37:52;1.48;;;1.15;;
65998;SDS011;52766;56.008;37.440;2023-06-24T01:40:28;3.85;;;1.05;;
65998;SDS011;52766;56.008;37.440;2023-06-24T01:42:58;0.85;;;0.80;;
65998;SDS011;52766;56.008;37.440;2023-06-24T01:45:29;0.77;;;0.77;;
65998;SDS011;52766;56.008;37.440;2023-06-24T01:48:07;1.58;;;0.88;;
65998;SDS011;52766;56.008;37.440;2023-06-24T01:50:44;1.02;;;0.80;;
65998;SDS011;52766;56.008;37.440;2023-06-24T01:53:19;1.42;;;0.90;;
65998;SDS011;52766;56.008;37.440;2023-06-24T01:55:48;1.10;;;0.80;;
65998;SDS011;52766;56.008;37.440;2023-06-24T01:58:16;1.10;;;0.77;;
65998;SDS011;52766;56.008;37.440;2023-06-24T02:00:44;1.50;;;1.00;;
65998;SDS011;52766;56.008;37.440;2023-06-24T02:03:10;0.80;;;0.80;;
65998;SDS011;52766;56.008;37.440;2023-06-24T02:05:37;2.30;;;1.05;;
65998;SDS011;52766;56.008;37.440;2023-06-24T02:08:07;1.13;;;1.00;;
65998;SDS011;52766;56.008;37.440;2023-06-24T02:10:34;0.60;;;0.60;;
65998;SDS011;52766;56.008;37.440;2023-06-24T02:13:04;2.60;;;1.00;;
65998;SDS011;52766;56.008;37.440;2023-06-24T02:15:31;1.42;;;1.00;;
65998;SDS011;52766;56.008;37.440;2023-06-24T02:17:57;0.65;;;0.60;;
65998;SDS011;52766;56.008;37.440;2023-06-24T02:20:24;0.63;;;0.63;;
65998;SDS011;52766;56.008;37.440;2023-06-24T02:22:55;1.55;;;1.30;;
65998;SDS011;52766;56.008;37.440;2023-06-24T02:25:22;0.57;;;0.57;;
65998;SDS011;52766;56.008;37.440;2023-06-24T02:27:50;1.00;;;0.73;;
65998;SDS011;52766;56.008;37.440;2023-06-24T02:30:16;1.27;;;0.90;;
65998;SDS011;52766;56.008;37.440;2023-06-24T02:32:42;1.33;;;0.73;;
65998;SDS011;52766;56.008;37.440;2023-06-24T02:35:12;0.95;;;0.82;;
65998;SDS011;52766;56.008;37.440;2023-06-24T02:37:37;2.33;;;1.02;;
65998;SDS011;52766;56.008;37.440;2023-06-24T02:40:05;0.80;;;0.75;;
65998;SDS011;52766;56.008;37.440;2023-06-24T02:42:33;0.88;;;0.80;;
65998;SDS011;52766;56.008;37.440;2023-06-24T02:44:59;0.95;;;0.80;;
65998;SDS011;52766;56.008;37.440;2023-06-24T02:47:25;1.42;;;0.93;;
65998;SDS011;52766;56.008;37.440;2023-06-24T02:49:52;1.10;;;0.88;;
65998;SDS011;52766;56.008;37.440;2023-06-24T02:52:20;0.80;;;0.80;;
65998;SDS011;52766;56.008;37.440;2023-06-24T02:54:46;1.52;;;0.80;;
65998;SDS011;52766;56.008;37.440;2023-06-24T02:57:19;2.42;;;1.10;;
65998;SDS011;52766;56.008;37.440;2023-06-24T03:00:04;1.80;;;0.93;;
65998;SDS011;52766;56.008;37.440;2023-06-24T03:02:50;0.85;;;0.85;;
65998;SDS011;52766;56.008;37.440;2023-06-24T03:05:19;1.45;;;1.10;;
65998;SDS011;52766;56.008;37.440;2023-06-24T03:07:46;1.27;;;0.90;;
65998;SDS011;52766;56.008;37.440;2023-06-24T03:10:12;2.42;;;1.00;;
65998;SDS011;52766;56.008;37.440;2023-06-24T03:12:45;0.60;;;0.60;;
65998;SDS011;52766;56.008;37.440;2023-06-24T03:15:13;1.45;;;0.82;;
65998;SDS011;52766;56.008;37.440;2023-06-24T03:17:41;1.75;;;0.98;;
65998;SDS011;52766;56.008;37.440;2023-06-24T03:20:10;0.80;;;0.80;;
65998;SDS011;52766;56.008;37.440;2023-06-24T03:22:43;1.00;;;0.88;;
65998;SDS011;52766;56.008;37.440;2023-06-24T03:25:11;1.08;;;0.80;;
65998;SDS011;52766;56.008;37.440;2023-06-24T03:27:37;1.13;;;0.82;;
65998;SDS011;52766;56.008;37.440;2023-06-24T03:30:05;1.00;;;0.63;;
65998;SDS011;52766;56.008;37.440;2023-06-24T03:32:34;1.98;;;0.80;;
65998;SDS011;52766;56.008;37.440;2023-06-24T03:35:03;0.60;;;0.60;;
65998;SDS011;52766;56.008;37.440;2023-06-24T03:37:30;2.13;;;0.95;;
65998;SDS011;52766;56.008;37.440;2023-06-24T03:39:57;0.65;;;0.65;;
65998;SDS011;52766;56.008;37.440;2023-06-24T03:42:26;1.65;;;1.00;;
65998;SDS011;52766;56.008;37.440;2023-06-24T03:44:55;2.03;;;1.30;;
65998;SDS011;52766;56.008;37.440;2023-06-24T03:47:21;1.35;;;0.88;;
65998;SDS011;52766;56.008;37.440;2023-06-24T03:49:48;3.70;;;1.00;;
65998;SDS011;52766;56.008;37.440;2023-06-24T03:52:16;1.25;;;0.93;;
65998;SDS011;52766;56.008;37.440;2023-06-24T03:54:43;2.10;;;1.17;;
65998;SDS011;52766;56.008;37.440;2023-06-24T03:57:12;0.77;;;0.60;;
65998;SDS011;52766;56.008;37.440;2023-06-24T03:59:39;1.92;;;1.00;;
65998;SDS011;52766;56.008;37.440;2023-06-24T04:02:06;0.93;;;0.77;;
65998;SDS011;52766;56.008;37.440;2023-06-24T04:04:35;0.85;;;0.80;;
65998;SDS011;52766;56.008;37.440;2023-06-24T04:07:05;0.90;;;0.73;;
65998;SDS011;52766;56.008;37.440;2023-06-24T04:09:33;1.15;;;0.75;;
65998;SDS011;52766;56.008;37.440;2023-06-24T04:12:01;1.67;;;0.82;;
65998;SDS011;52766;56.008;37.440;2023-06-24T04:14:33;1.00;;;0.70;;
65998;SDS011;52766;56.008;37.440;2023-06-24T04:17:01;0.98;;;0.80;;
65998;SDS011;52766;56.008;37.440;2023-06-24T04:19:30;1.50;;;0.98;;
65998;SDS011;52766;56.008;37.440;2023-06-24T04:21:59;2.35;;;1.20;;
65998;SDS011;52766;56.008;37.440;2023-06-24T04:24:30;1.60;;;0.73;;
65998;SDS011;52766;56.008;37.440;2023-06-24T04:26:59;1.65;;;0.70;;
65998;SDS011;52766;56.008;37.440;2023-06-24T04:29:27;0.70;;;0.70;;
65998;SDS011;52766;56.008;37.440;2023-06-24T04:32:04;1.25;;;0.77;;
65998;SDS011;52766;56.008;37.440;2023-06-24T04:34:31;0.93;;;0.82;;
65998;SDS011;52766;56.008;37.440;2023-06-24T04:36:58;1.10;;;0.80;;
65998;SDS011;52766;56.008;37.440;2023-06-24T04:39:25;1.17;;;0.82;;
65998;SDS011;52766;56.008;37.440;2023-06-24T04:41:56;0.88;;;0.88;;
65998;SDS011;52766;56.008;37.440;2023-06-24T04:44:23;1.00;;;0.90;;
65998;SDS011;52766;56.008;37.440;2023-06-24T04:46:52;2.42;;;1.02;;
65998;SDS011;52766;56.008;37.440;2023-06-24T04:49:20;1.02;;;0.88;;
65998;SDS011;52766;56.008;37.440;2023-06-24T04:51:48;2.08;;;1.45;;
65998;SDS011;52766;56.008;37.440;2023-06-24T04:54:15;2.50;;;0.60;;
65998;SDS011;52766;56.008;37.440;2023-06-24T04:56:41;1.17;;;0.85;;
65998;SDS011;52766;56.008;37.440;2023-06-24T04:59:08;1.25;;;0.90;;
65998;SDS011;52766;56.008;37.440;2023-06-24T05:01:35;1.80;;;1.20;;
65998;SDS011;52766;56.008;37.440;2023-06-24T05:04:01;2.03;;;1.05;;
65998;SDS011;52766;56.008;37.440;2023-06-24T05:06:27;2.35;;;1.10;;
65998;SDS011;52766;56.008;37.440;2023-06-24T05:08:57;1.70;;;0.93;;
65998;SDS011;52766;56.008;37.440;2023-06-24T05:11:31;2.05;;;1.35;;
65998;SDS011;52766;56.008;37.440;2023-06-24T05:13:58;0.90;;;0.80;;
65998;SDS011;52766;56.008;37.440;2023-06-24T05:16:25;0.82;;;0.80;;
65998;SDS011;52766;56.008;37.440;2023-06-24T05:18:51;2.15;;;1.25;;
65998;SDS011;52766;56.008;37.440;2023-06-24T05:21:19;5.97;;;0.90;;
65998;SDS011;52766;56.008;37.440;2023-06-24T05:23:45;1.98;;;1.30;;
65998;SDS011;52766;56.008;37.440;2023-06-24T05:26:12;2.10;;;1.33;;
65998;SDS011;52766;56.008;37.440;2023-06-24T05:28:38;2.83;;;1.20;;
65998;SDS011;52766;56.008;37.440;2023-06-24T05:31:23;1.30;;;0.88;;
65998;SDS011;52766;56.008;37.440;2023-06-24T05:33:51;2.88;;;1.00;;
65998;SDS011;52766;56.008;37.440;2023-06-24T05:36:20;1.98;;;1.17;;
65998;SDS011;52766;56.008;37.440;2023-06-24T05:38:47;2.08;;;1.27;;
65998;SDS011;52766;56.008;37.440;2023-06-24T05:41:15;1.45;;;1.08;;
65998;SDS011;52766;56.008;37.440;2023-06-24T05:43:43;2.20;;;1.10;;
65998;SDS011;52766;56.008;37.440;2023-06-24T05:46:11;1.88;;;1.20;;
65998;SDS011;52766;56.008;37.440;2023-06-24T05:48:42;2.53;;;1.08;;
65998;SDS011;52766;56.008;37.440;2023-06-24T05:51:10;1.52;;;0.93;;
65998;SDS011;52766;56.008;37.440;2023-06-24T05:53:37;3.05;;;1.45;;
65998;SDS011;52766;56.008;37.440;2023-06-24T05:56:05;1.38;;;0.88;;
65998;SDS011;52766;56.008;37.440;2023-06-24T05:58:33;2.38;;;1.52;;
65998;SDS011;52766;56.008;37.440;2023-06-24T06:00:59;2.28;;;1.13;;
65998;SDS011;52766;56.008;37.440;2023-06-24T06:03:30;1.92;;;1.27;;
65998;SDS011;52766;56.008;37.440;2023-06-24T06:05:57;1.80;;;1.05;;
65998;SDS011;52766;56.008;37.440;2023-06-24T06:08:26;1.90;;;1.20;;
65998;SDS011;52766;56.008;37.440;2023-06-24T06:10:52;1.75;;;1.10;;
65998;SDS011;52766;56.008;37.440;2023-06-24T06:13:20;1.15;;;1.00;;
65998;SDS011;52766;56.008;37.440;2023-06-24T06:15:48;0.82;;;0.82;;
65998;SDS011;52766;56.008;37.440;2023-06-24T06:18:16;1.77;;;1.05;;
65998;SDS011;52766;56.008;37.440;2023-06-24T06:20:43;1.70;;;0.98;;
65998;SDS011;52766;56.008;37.440;2023-06-24T06:23:10;1.40;;;0.88;;
65998;SDS011;52766;56.008;37.440;2023-06-24T06:25:48;1.58;;;1.00;;
65998;SDS011;52766;56.008;37.440;2023-06-24T06:28:15;1.70;;;1.15;;
65998;SDS011;52766;56.008;37.440;2023-06-24T06:30:43;1.70;;;1.20;;
65998;SDS011;52766;56.008;37.440;2023-06-24T06:33:11;2.30;;;1.30;;
65998;SDS011;52766;56.008;37.440;2023-06-24T06:35:43;1.33;;;1.00;;
65998;SDS011;52766;56.008;37.440;2023-06-24T06:38:10;1.10;;;0.68;;
65998;SDS011;52766;56.008;37.440;2023-06-24T06:40:38;3.53;;;1.20;;
65998;SDS011;52766;56.008;37.440;2023-06-24T06:43:06;2.25;;;1.30;;
65998;SDS011;52766;56.008;37.440;2023-06-24T06:45:33;1.38;;;1.02;;
65998;SDS011;52766;56.008;37.440;2023-06-24T06:48:00;3.42;;;1.58;;
65998;SDS011;52766;56.008;37.440;2023-06-24T06:50:34;1.65;;;1.00;;
65998;SDS011;52766;56.008;37.440;2023-06-24T06:53:00;2.10;;;1.58;;
65998;SDS011;52766;56.008;37.440;2023-06-24T06:55:46;2.22;;;1.50;;
65998;SDS011;52766;56.008;37.440;2023-06-24T06:58:24;3.30;;;1.42;;
65998;SDS011;52766;56.008;37.440;2023-06-24T07:00:54;2.60;;;1.58;;
65998;SDS011;52766;56.008;37.440;2023-06-24T07:03:23;2.13;;;1.33;;
65998;SDS011;52766;56.008;37.440;2023-06-24T07:06:04;2.40;;;1.45;;
65998;SDS011;52766;56.008;37.440;2023-06-24T07:08:35;4.15;;;1.58;;
65998;SDS011;52766;56.008;37.440;2023-06-24T07:11:20;1.48;;;1.20;;
65998;SDS011;52766;56.008;37.440;2023-06-24T07:13:54;2.50;;;1.58;;
65998;SDS011;52766;56.008;37.440;2023-06-24T07:16:27;2.75;;;1.13;;
65998;SDS011;52766;56.008;37.440;2023-06-24T07:18:56;3.40;;;2.08;;
65998;SDS011;52766;56.008;37.440;2023-06-24T07:24:18;1.77;;;1.40;;
65998;SDS011;52766;56.008;37.440;2023-06-24T07:26:45;3.55;;;1.73;;
65998;SDS011;52766;56.008;37.440;2023-06-24T07:29:25;3.17;;;1.70;;
65998;SDS011;52766;56.008;37.440;2023-06-24T07:32:21;2.70;;;1.80;;
65998;SDS011;52766;56.008;37.440;2023-06-24T07:34:48;3.65;;;2.00;;
65998;SDS011;52766;56.008;37.440;2023-06-24T07:37:27;2.72;;;2.05;;
65998;SDS011;52766;56.008;37.440;2023-06-24T07:39:58;4.57;;;2.17;;
65998;SDS011;52766;56.008;37.440;2023-06-24T07:42:25;3.22;;;1.83;;
65998;SDS011;52766;56.008;37.440;2023-06-24T07:44:52;5.63;;;1.88;;
65998;SDS011;52766;56.008;37.440;2023-06-24T07:47:23;2.42;;;1.80;;
65998;SDS011;52766;56.008;37.440;2023-06-24T07:49:55;3.33;;;2.17;;
65998;SDS011;52766;56.008;37.440;2023-06-24T07:52:28;4.07;;;2.20;;
65998;SDS011;52766;56.008;37.440;2023-06-24T07:55:02;4.50;;;1.80;;
65998;SDS011;52766;56.008;37.440;2023-06-24T07:57:35;2.70;;;1.75;;
65998;SDS011;52766;56.008;37.440;2023-06-24T08:00:06;3.88;;;1.90;;
65998;SDS011;52766;56.008;37.440;2023-06-24T08:02:40;3.70;;;2.00;;
65998;SDS011;52766;56.008;37.440;2023-06-24T08:05:09;3.72;;;1.92;;
65998;SDS011;52766;56.008;37.440;2023-06-24T08:07:39;3.28;;;2.10;;
65998;SDS011;52766;56.008;37.440;2023-06-24T08:10:10;1.83;;;1.23;;
65998;SDS011;52766;56.008;37.440;2023-06-24T08:12:42;3.50;;;2.08;;
65998;SDS011;52766;56.008;37.440;2023-06-24T08:15:31;3.53;;;1.77;;
65998;SDS011;52766;56.008;37.440;2023-06-24T08:31:41;5.18;;;3.40;;
65998;SDS011;52766;56.008;37.440;2023-06-24T08:34:09;4.57;;;3.00;;
65998;SDS011;52766;56.008;37.440;2023-06-24T08:36:36;6.45;;;4.18;;
65998;SDS011;52766;56.008;37.440;2023-06-24T08:39:16;7.63;;;4.20;;
65998;SDS011;52766;56.008;37.440;2023-06-24T08:42:08;5.05;;;3.22;;
65998;SDS011;52766;56.008;37.440;2023-06-24T08:44:41;6.07;;;3.90;;
65998;SDS011;52766;56.008;37.440;2023-06-24T08:47:15;6.97;;;4.50;;
65998;SDS011;52766;56.008;37.440;2023-06-24T08:53:38;6.55;;;3.90;;
65998;SDS011;52766;56.008;37.440;2023-06-24T08:56:14;5.85;;;3.42;;
65998;SDS011;52766;56.008;37.440;2023-06-24T08:58:41;6.47;;;4.05;;
65998;SDS011;52766;56.008;37.440;2023-06-24T09:04:01;7.03;;;4.70;;
65998;SDS011;52766;56.008;37.440;2023-06-24T09:06:34;7.22;;;5.10;;
65998;SDS011;52766;56.008;37.440;2023-06-24T09:09:03;5.78;;;4.10;;
65998;SDS011;52766;56.008;37.440;2023-06-24T09:11:57;7.60;;;5.10;;
65998;SDS011;52766;56.008;37.440;2023-06-24T09:14:33;6.70;;;4.55;;
65998;SDS011;52766;56.008;37.440;2023-06-24T09:20:03;9.98;;;6.43;;
65998;SDS011;52766;56.008;37.440;2023-06-24T09:22:32;7.20;;;5.25;;
65998;SDS011;52766;56.008;37.440;2023-06-24T09:25:00;8.50;;;5.60;;
65998;SDS011;52766;56.008;37.440;2023-06-24T09:27:37;7.63;;;4.95;;
65998;SDS011;52766;56.008;37.440;2023-06-24T09:30:22;7.78;;;5.72;;
65998;SDS011;52766;56.008;37.440;2023-06-24T09:32:51;8.18;;;5.45;;
65998;SDS011;52766;56.008;37.440;2023-06-24T09:35:24;7.93;;;5.43;;
65998;SDS011;52766;56.008;37.440;2023-06-24T09:37:54;9.35;;;6.28;;
65998;SDS011;52766;56.008;37.440;2023-06-24T09:40:27;8.32;;;5.60;;
65998;SDS011;52766;56.008;37.440;2023-06-24T09:42:55;6.45;;;4.53;;
65998;SDS011;52766;56.008;37.440;2023-06-24T09:48:00;7.57;;;5.00;;
65998;SDS011;52766;56.008;37.440;2023-06-24T09:50:32;7.75;;;5.13;;
65998;SDS011;52766;56.008;37.440;2023-06-24T09:53:02;6.97;;;5.38;;
65998;SDS011;52766;56.008;37.440;2023-06-24T09:58:03;8.05;;;5.18;;
65998;SDS011;52766;56.008;37.440;2023-06-24T10:00:32;6.00;;;3.75;;
65998;SDS011;52766;56.008;37.440;2023-06-24T10:03:03;8.02;;;5.55;;
65998;SDS011;52766;56.008;37.440;2023-06-24T10:05:41;7.65;;;4.90;;
65998;SDS011;52766;56.008;37.440;2023-06-24T10:08:13;7.43;;;5.63;;
65998;SDS011;52766;56.008;37.440;2023-06-24T10:13:37;9.73;;;6.13;;
65998;SDS011;52766;56.008;37.440;2023-06-24T10:16:07;8.75;;;5.85;;
65998;SDS011;52766;56.008;37.440;2023-06-24T10:18:44;7.63;;;5.47;;
65998;SDS011;52766;56.008;37.440;2023-06-24T10:21:15;7.57;;;4.97;;
65998;SDS011;52766;56.008;37.440;2023-06-24T10:26:28;6.90;;;5.30;;
65998;SDS011;52766;56.008;37.440;2023-06-24T10:32:17;7.07;;;5.40;;
65998;SDS011;52766;56.008;37.440;2023-06-24T10:34:47;7.10;;;4.60;;
65998;SDS011;52766;56.008;37.440;2023-06-24T10:39:49;8.93;;;4.72;;
65998;SDS011;52766;56.008;37.440;2023-06-24T10:42:33;6.95;;;4.72;;
65998;SDS011;52766;56.008;37.440;2023-06-24T10:50:25;6.35;;;4.20;;
65998;SDS011;52766;56.008;37.440;2023-06-24T10:52:56;6.82;;;4.40;;
65998;SDS011;52766;56.008;37.440;2023-06-24T10:55:26;6.00;;;4.32;;
65998;SDS011;52766;56.008;37.440;2023-06-24T10:58:10;7.55;;;4.45;;
65998;SDS011;52766;56.008;37.440;2023-06-24T11:03:45;6.55;;;4.47;;
65998;SDS011;52766;56.008;37.440;2023-06-24T11:06:16;5.85;;;4.20;;
65998;SDS011;52766;56.008;37.440;2023-06-24T11:08:46;7.50;;;4.22;;
65998;SDS011;52766;56.008;37.440;2023-06-24T11:11:19;5.75;;;4.35;;
65998;SDS011;52766;56.008;37.440;2023-06-24T11:13:48;5.43;;;3.90;;
65998;SDS011;52766;56.008;37.440;2023-06-24T11:16:20;5.32;;;3.25;;
65998;SDS011;52766;56.008;37.440;2023-06-24T11:18:52;5.72;;;3.40;;
65998;SDS011;52766;56.008;37.440;2023-06-24T11:21:27;6.72;;;3.80;;
65998;SDS011;52766;56.008;37.440;2023-06-24T11:24:18;6.78;;;3.78;;
65998;SDS011;52766;56.008;37.440;2023-06-24T11:26:47;5.00;;;3.38;;
65998;SDS011;52766;56.008;37.440;2023-06-24T11:36:35;6.75;;;4.05;;
65998;SDS011;52766;56.008;37.440;2023-06-24T11:42:11;6.70;;;4.10;;
65998;SDS011;52766;56.008;37.440;2023-06-24T11:49:09;6.18;;;3.92;;
65998;SDS011;52766;56.008;37.440;2023-06-24T11:52:04;5.60;;;3.75;;
65998;SDS011;52766;56.008;37.440;2023-06-24T11:54:42;5.90;;;4.00;;
65998;SDS011;52766;56.008;37.440;2023-06-24T11:57:50;6.72;;;3.90;;
65998;SDS011;52766;56.008;37.440;2023-06-24T12:00:53;6.22;;;4.32;;
65998;SDS011;52766;56.008;37.440;2023-06-24T12:03:34;5.93;;;4.22;;
65998;SDS011;52766;56.008;37.440;2023-06-24T12:09:59;6.57;;;4.18;;
65998;SDS011;52766;56.008;37.440;2023-06-24T12:12:35;7.65;;;4.78;;
65998;SDS011;52766;56.008;37.440;2023-06-24T12:15:12;7.10;;;5.00;;
65998;SDS011;52766;56.008;37.440;2023-06-24T12:17:48;9.02;;;4.80;;
65998;SDS011;52766;56.008;37.440;2023-06-24T12:24:36;6.03;;;3.80;;
65998;SDS011;52766;56.008;37.440;2023-06-24T12:31:25;6.25;;;3.95;;
65998;SDS011;52766;56.008;37.440;2023-06-24T12:34:32;6.80;;;3.67;;
65998;SDS011;52766;56.008;37.440;2023-06-24T12:43:50;6.63;;;3.50;;
65998;SDS011;52766;56.008;37.440;2023-06-24T12:49:51;6.55;;;3.70;;
65998;SDS011;52766;56.008;37.440;2023-06-24T12:58:44;5.57;;;3.90;;
65998;SDS011;52766;56.008;37.440;2023-06-24T13:08:38;6.47;;;4.50;;
65998;SDS011;52766;56.008;37.440;2023-06-24T13:12:07;5.32;;;3.63;;
65998;SDS011;52766;56.008;37.440;2023-06-24T13:15:15;6.60;;;3.60;;
65998;SDS011;52766;56.008;37.440;2023-06-24T13:17:57;5.85;;;3.80;;
65998;SDS011;52766;56.008;37.440;2023-06-24T13:30:07;4.68;;;2.95;;
65998;SDS011;52766;56.008;37.440;2023-06-24T13:32:38;7.97;;;3.67;;
65998;SDS011;52766;56.008;37.440;2023-06-24T13:36:06;7.80;;;4.15;;
65998;SDS011;52766;56.008;37.440;2023-06-24T13:43:03;6.20;;;3.55;;
65998;SDS011;52766;56.008;37.440;2023-06-24T13:45:32;6.78;;;3.90;;
65998;SDS011;52766;56.008;37.440;2023-06-24T13:48:35;9.05;;;3.92;;
65998;SDS011;52766;56.008;37.440;2023-06-24T13:51:27;5.78;;;3.70;;
65998;SDS011;52766;56.008;37.440;2023-06-24T13:53:54;5.78;;;3.58;;
65998;SDS011;52766;56.008;37.440;2023-06-24T13:56:48;8.73;;;3.60;;
65998;SDS011;52766;56.008;37.440;2023-06-24T13:59:50;9.63;;;3.97;;
65998;SDS011;52766;56.008;37.440;2023-06-24T14:02:19;7.13;;;3.60;;
65998;SDS011;52766;56.008;37.440;2023-06-24T14:04:53;6.63;;;3.75;;
65998;SDS011;52766;56.008;37.440;2023-06-24T14:07:23;9.00;;;3.85;;
65998;SDS011;52766;56.008;37.440;2023-06-24T14:09:59;7.88;;;3.63;;
65998;SDS011;52766;56.008;37.440;2023-06-24T14:12:44;8.13;;;4.03;;
65998;SDS011;52766;56.008;37.440;2023-06-24T14:15:33;10.23;;;3.70;;
65998;SDS011;52766;56.008;37.440;2023-06-24T14:18:10;8.23;;;3.92;;
65998;SDS011;52766;56.008;37.440;2023-06-24T14:21:18;7.38;;;3.88;;
65998;SDS011;52766;56.008;37.440;2023-06-24T14:27:21;7.13;;;3.60;;
65998;SDS011;52766;56.008;37.440;2023-06-24T14:30:47;6.22;;;3.38;;
65998;SDS011;52766;56.008;37.440;2023-06-24T14:36:55;9.00;;;3.65;;
65998;SDS011;52766;56.008;37.440;2023-06-24T14:42:46;12.27;;;3.72;;
65998;SDS011;52766;56.008;37.440;2023-06-24T14:45:52;6.78;;;3.65;;
65998;SDS011;52766;56.008;37.440;2023-06-24T14:48:40;6.65;;;3.17;;
65998;SDS011;52766;56.008;37.440;2023-06-24T14:52:16;7.60;;;3.83;;
65998;SDS011;52766;56.008;37.440;2023-06-24T14:54:47;6.43;;;2.80;;
65998;SDS011;52766;56.008;37.440;2023-06-24T14:57:13;5.30;;;2.90;;
65998;SDS011;52766;56.008;37.440;2023-06-24T14:59:45;9.07;;;3.13;;
65998;SDS011;52766;56.008;37.440;2023-06-24T15:02:41;5.68;;;2.95;;
65998;SDS011;52766;56.008;37.440;2023-06-24T15:06:10;6.20;;;3.42;;
65998;SDS011;52766;56.008;37.440;2023-06-24T15:09:38;8.23;;;3.33;;
65998;SDS011;52766;56.008;37.440;2023-06-24T15:17:57;5.78;;;2.92;;
65998;SDS011;52766;56.008;37.440;2023-06-24T15:24:13;6.93;;;3.80;;
65998;SDS011;52766;56.008;37.440;2023-06-24T15:27:36;5.10;;;3.25;;
65998;SDS011;52766;56.008;37.440;2023-06-24T15:30:14;5.15;;;3.65;;
65998;SDS011;52766;56.008;37.440;2023-06-24T15:33:20;6.05;;;3.50;;
65998;SDS011;52766;56.008;37.440;2023-06-24T15:36:23;8.05;;;3.85;;
65998;SDS011;52766;56.008;37.440;2023-06-24T15:38:56;6.25;;;3.55;;
65998;SDS011;52766;56.008;37.440;2023-06-24T15:41:33;6.80;;;4.57;;
65998;SDS011;52766;56.008;37.440;2023-06-24T15:44:20;4.80;;;3.10;;
65998;SDS011;52766;56.008;37.440;2023-06-24T15:46:52;6.35;;;3.05;;
65998;SDS011;52766;56.008;37.440;2023-06-24T15:53:02;7.00;;;3.63;;
65998;SDS011;52766;56.008;37.440;2023-06-24T15:58:59;5.00;;;3.22;;
65998;SDS011;52766;56.008;37.440;2023-06-24T16:01:51;4.80;;;3.88;;
65998;SDS011;52766;56.008;37.440;2023-06-24T16:04:28;6.78;;;4.22;;
65998;SDS011;52766;56.008;37.440;2023-06-24T16:10:56;5.22;;;2.85;;
65998;SDS011;52766;56.008;37.440;2023-06-24T16:13:32;4.43;;;3.10;;
65998;SDS011;52766;56.008;37.440;2023-06-24T16:16:12;4.72;;;3.25;;
65998;SDS011;52766;56.008;37.440;2023-06-24T16:19:27;5.45;;;2.90;;
65998;SDS011;52766;56.008;37.440;2023-06-24T16:22:51;6.05;;;3.40;;
65998;SDS011;52766;56.008;37.440;2023-06-24T16:26:29;6.13;;;3.10;;
65998;SDS011;52766;56.008;37.440;2023-06-24T16:29:34;5.38;;;3.17;;
65998;SDS011;52766;56.008;37.440;2023-06-24T16:32:07;5.50;;;3.17;;
65998;SDS011;52766;56.008;37.440;2023-06-24T16:35:16;4.30;;;2.95;;
65998;SDS011;52766;56.008;37.440;2023-06-24T16:44:00;5.95;;;3.40;;
65998;SDS011;52766;56.008;37.440;2023-06-24T16:46:50;5.43;;;3.70;;
65998;SDS011;52766;56.008;37.440;2023-06-24T16:49:30;6.10;;;3.00;;
65998;SDS011;52766;56.008;37.440;2023-06-24T16:52:07;4.78;;;3.30;;
65998;SDS011;52766;56.008;37.440;2023-06-24T16:55:37;5.03;;;3.15;;
65998;SDS011;52766;56.008;37.440;2023-06-24T17:02:22;4.40;;;3.10;;
65998;SDS011;52766;56.008;37.440;2023-06-24T17:05:01;5.10;;;3.10;;
65998;SDS011;52766;56.008;37.440;2023-06-24T17:07:36;6.15;;;3.20;;
65998;SDS011;52766;56.008;37.440;2023-06-24T17:10:29;6.32;;;3.45;;
65998;SDS011;52766;56.008;37.440;2023-06-24T17:13:06;5.60;;;3.38;;
65998;SDS011;52766;56.008;37.440;2023-06-24T17:15:53;8.32;;;3.50;;
65998;SDS011;52766;56.008;37.440;2023-06-24T17:39:30;6.20;;;3.75;;
65998;SDS011;52766;56.008;37.440;2023-06-24T17:42:23;6.70;;;3.75;;
65998;SDS011;52766;56.008;37.440;2023-06-24T17:45:13;8.40;;;4.25;;
65998;SDS011;52766;56.008;37.440;2023-06-24T17:51:34;6.38;;;4.20;;
65998;SDS011;52766;56.008;37.440;2023-06-24T17:59:41;6.70;;;4.55;;
65998;SDS011;52766;56.008;37.440;2023-06-24T18:02:08;8.60;;;4.47;;
65998;SDS011;52766;56.008;37.440;2023-06-24T18:04:39;8.05;;;4.70;;
65998;SDS011;52766;56.008;37.440;2023-06-24T18:07:08;9.02;;;5.45;;
65998;SDS011;52766;56.008;37.440;2023-06-24T18:09:41;9.70;;;4.57;;
65998;SDS011;52766;56.008;37.440;2023-06-24T18:12:13;9.13;;;5.50;;
65998;SDS011;52766;56.008;37.440;2023-06-24T18:14:52;9.70;;;5.50;;
65998;SDS011;52766;56.008;37.440;2023-06-24T18:17:31;10.00;;;5.65;;
65998;SDS011;52766;56.008;37.440;2023-06-24T18:19:58;7.03;;;4.85;;
65998;SDS011;52766;56.008;37.440;2023-06-24T18:22:31;8.40;;;5.40;;
65998;SDS011;52766;56.008;37.440;2023-06-24T18:25:01;10.35;;;5.70;;
65998;SDS011;52766;56.008;37.440;2023-06-24T18:27:33;12.57;;;6.25;;
65998;SDS011;52766;56.008;37.440;2023-06-24T18:30:05;8.90;;;5.28;;
65998;SDS011;52766;56.008;37.440;2023-06-24T18:34:58;9.00;;;5.53;;
65998;SDS011;52766;56.008;37.440;2023-06-24T18:37:34;13.50;;;7.78;;
65998;SDS011;52766;56.008;37.440;2023-06-24T18:40:03;13.70;;;6.75;;
65998;SDS011;52766;56.008;37.440;2023-06-24T18:42:35;9.55;;;5.63;;